sensor_id;sensor_type;location;lat;lon;timestamp;temperature;humidity
580;DHT22;276;48.392;9.950;2023-06-14T00:02:19;18.10;68.30
580;DHT22;276;48.392;9.950;2023-06-14T00:04:45;18.10;68.40
580;DHT22;276;48.392;9.950;2023-06-14T00:07:13;18.00;68.30
580;DHT22;276;48.392;9.950;2023-06-14T00:09:39;18.00;68.40
580;DHT22;276;48.392;9.950;2023-06-14T00:12:07;17.90;68.50
580;DHT22;276;48.392;9.950;2023-06-14T00:14:34;17.90;68.60
580;DHT22;276;48.392;9.950;2023-06-14T00:16:59;17.90;68.70
580;DHT22;276;48.392;9.950;2023-06-14T00:19:25;17.90;68.70
580;DHT22;276;48.392;9.950;2023-06-14T00:21:51;17.80;68.70
580;DHT22;276;48.392;9.950;2023-06-14T00:24:18;17.80;68.80
580;DHT22;276;48.392;9.950;2023-06-14T00:26:44;17.80;69.00
580;DHT22;276;48.392;9.950;2023-06-14T00:29:10;17.70;68.80
580;DHT22;276;48.392;9.950;2023-06-14T00:31:35;17.70;68.90
580;DHT22;276;48.392;9.950;2023-06-14T00:34:04;17.70;69.00
580;DHT22;276;48.392;9.950;2023-06-14T00:36:32;17.70;69.00
580;DHT22;276;48.392;9.950;2023-06-14T00:39:02;17.60;69.10
580;DHT22;276;48.392;9.950;2023-06-14T00:41:29;17.60;69.20
580;DHT22;276;48.392;9.950;2023-06-14T00:43:55;17.60;69.40
580;DHT22;276;48.392;9.950;2023-06-14T00:46:22;17.60;69.70
580;DHT22;276;48.392;9.950;2023-06-14T00:48:48;17.50;69.70
580;DHT22;276;48.392;9.950;2023-06-14T00:51:14;17.50;69.80
580;DHT22;276;48.392;9.950;2023-06-14T00:53:45;17.50;69.90
580;DHT22;276;48.392;9.950;2023-06-14T00:56:13;17.40;69.80
580;DHT22;276;48.392;9.950;2023-06-14T00:58:41;17.40;70.10
580;DHT22;276;48.392;9.950;2023-06-14T01:01:07;17.40;70.20
580;DHT22;276;48.392;9.950;2023-06-14T01:03:33;17.40;70.50
580;DHT22;276;48.392;9.950;2023-06-14T01:09:37;17.30;70.60
580;DHT22;276;48.392;9.950;2023-06-14T01:12:36;17.30;70.60
580;DHT22;276;48.392;9.950;2023-06-14T01:15:05;17.20;70.70
580;DHT22;276;48.392;9.950;2023-06-14T01:17:31;17.20;70.90
580;DHT22;276;48.392;9.950;2023-06-14T01:20:04;17.20;71.20
580;DHT22;276;48.392;9.950;2023-06-14T01:22:35;17.20;71.30
580;DHT22;276;48.392;9.950;2023-06-14T01:25:04;17.20;71.20
580;DHT22;276;48.392;9.950;2023-06-14T01:27:31;17.20;71.00
580;DHT22;276;48.392;9.950;2023-06-14T01:29:59;17.10;71.00
580;DHT22;276;48.392;9.950;2023-06-14T01:32:29;17.10;71.20
580;DHT22;276;48.392;9.950;2023-06-14T01:34:55;17.10;71.30
580;DHT22;276;48.392;9.950;2023-06-14T01:37:21;17.10;71.50
580;DHT22;276;48.392;9.950;2023-06-14T01:39:51;17.10;71.60
580;DHT22;276;48.392;9.950;2023-06-14T01:42:16;17.00;71.50
580;DHT22;276;48.392;9.950;2023-06-14T01:44:44;17.00;71.50
580;DHT22;276;48.392;9.950;2023-06-14T01:47:10;17.00;71.60
580;DHT22;276;48.392;9.950;2023-06-14T01:49:38;17.00;71.80
580;DHT22;276;48.392;9.950;2023-06-14T01:52:04;17.00;71.70
580;DHT22;276;48.392;9.950;2023-06-14T01:54:29;17.00;71.50
580;DHT22;276;48.392;9.950;2023-06-14T01:56:57;16.90;71.40
580;DHT22;276;48.392;9.950;2023-06-14T01:59:23;16.90;71.40
580;DHT22;276;48.392;9.950;2023-06-14T02:01:48;16.90;71.50
580;DHT22;276;48.392;9.950;2023-06-14T02:04:19;16.80;71.40
580;DHT22;276;48.392;9.950;2023-06-14T02:06:47;16.80;71.50
580;DHT22;276;48.392;9.950;2023-06-14T02:09:16;16.70;71.80
580;DHT22;276;48.392;9.950;2023-06-14T02:11:41;16.70;72.20
580;DHT22;276;48.392;9.950;2023-06-14T02:14:07;16.60;72.50
580;DHT22;276;48.392;9.950;2023-06-14T02:16:36;16.60;72.70
580;DHT22;276;48.392;9.950;2023-06-14T02:19:01;16.60;72.70
580;DHT22;276;48.392;9.950;2023-06-14T02:21:27;16.60;72.70
580;DHT22;276;48.392;9.950;2023-06-14T02:23:52;16.60;72.80
580;DHT22;276;48.392;9.950;2023-06-14T02:26:18;16.60;72.70
580;DHT22;276;48.392;9.950;2023-06-14T02:28:46;16.60;72.70
580;DHT22;276;48.392;9.950;2023-06-14T02:31:11;16.60;72.90
580;DHT22;276;48.392;9.950;2023-06-14T02:33:40;16.60;73.00
580;DHT22;276;48.392;9.950;2023-06-14T02:36:08;16.70;73.10
580;DHT22;276;48.392;9.950;2023-06-14T02:38:36;16.60;72.90
580;DHT22;276;48.392;9.950;2023-06-14T02:41:04;16.60;73.00
580;DHT22;276;48.392;9.950;2023-06-14T02:43:32;16.60;72.90
580;DHT22;276;48.392;9.950;2023-06-14T02:45:57;16.60;72.90
580;DHT22;276;48.392;9.950;2023-06-14T02:48:23;16.60;73.00
580;DHT22;276;48.392;9.950;2023-06-14T02:50:48;16.50;73.00
580;DHT22;276;48.392;9.950;2023-06-14T02:53:14;16.50;73.00
580;DHT22;276;48.392;9.950;2023-06-14T02:55:39;16.50;73.10
580;DHT22;276;48.392;9.950;2023-06-14T02:58:05;16.50;73.30
580;DHT22;276;48.392;9.950;2023-06-14T03:00:31;16.50;73.10
580;DHT22;276;48.392;9.950;2023-06-14T03:03:00;16.50;73.10
580;DHT22;276;48.392;9.950;2023-06-14T03:05:30;16.50;73.40
580;DHT22;276;48.392;9.950;2023-06-14T03:07:55;16.50;73.40
580;DHT22;276;48.392;9.950;2023-06-14T03:10:24;16.50;73.20
580;DHT22;276;48.392;9.950;2023-06-14T03:12:54;16.50;73.20
580;DHT22;276;48.392;9.950;2023-06-14T03:15:22;16.40;73.20
580;DHT22;276;48.392;9.950;2023-06-14T03:17:49;16.40;73.50
580;DHT22;276;48.392;9.950;2023-06-14T03:20:19;16.30;73.60
580;DHT22;276;48.392;9.950;2023-06-14T03:22:44;16.30;73.80
580;DHT22;276;48.392;9.950;2023-06-14T03:25:11;16.30;73.90
580;DHT22;276;48.392;9.950;2023-06-14T03:27:39;16.30;73.80
580;DHT22;276;48.392;9.950;2023-06-14T03:30:07;16.30;73.70
580;DHT22;276;48.392;9.950;2023-06-14T03:32:33;16.30;73.70
580;DHT22;276;48.392;9.950;2023-06-14T03:34:59;16.30;73.70
580;DHT22;276;48.392;9.950;2023-06-14T03:37:25;16.30;73.90
580;DHT22;276;48.392;9.950;2023-06-14T03:39:50;16.30;73.90
580;DHT22;276;48.392;9.950;2023-06-14T03:42:17;16.30;73.90
580;DHT22;276;48.392;9.950;2023-06-14T03:44:42;16.30;73.90
580;DHT22;276;48.392;9.950;2023-06-14T03:47:10;16.30;73.80
580;DHT22;276;48.392;9.950;2023-06-14T03:49:36;16.30;73.70
580;DHT22;276;48.392;9.950;2023-06-14T03:52:04;16.30;73.60
580;DHT22;276;48.392;9.950;2023-06-14T03:54:30;16.30;73.50
580;DHT22;276;48.392;9.950;2023-06-14T03:56:58;16.40;73.80
580;DHT22;276;48.392;9.950;2023-06-14T03:59:26;16.30;74.40
580;DHT22;276;48.392;9.950;2023-06-14T04:01:53;16.40;73.80
580;DHT22;276;48.392;9.950;2023-06-14T04:04:18;16.30;74.00
580;DHT22;276;48.392;9.950;2023-06-14T04:06:44;16.30;74.90
580;DHT22;276;48.392;9.950;2023-06-14T04:09:13;16.30;74.60
580;DHT22;276;48.392;9.950;2023-06-14T04:11:43;16.30;74.80
580;DHT22;276;48.392;9.950;2023-06-14T04:14:09;16.30;74.90
580;DHT22;276;48.392;9.950;2023-06-14T04:16:37;16.40;75.00
580;DHT22;276;48.392;9.950;2023-06-14T04:19:02;16.40;74.80
580;DHT22;276;48.392;9.950;2023-06-14T04:21:30;16.50;74.60
580;DHT22;276;48.392;9.950;2023-06-14T04:23:56;16.50;74.50
580;DHT22;276;48.392;9.950;2023-06-14T04:26:22;16.50;74.20
580;DHT22;276;48.392;9.950;2023-06-14T04:28:49;16.60;74.50
580;DHT22;276;48.392;9.950;2023-06-14T04:31:16;16.60;74.40
580;DHT22;276;48.392;9.950;2023-06-14T04:33:44;16.60;74.20
580;DHT22;276;48.392;9.950;2023-06-14T04:36:12;16.70;74.30
580;DHT22;276;48.392;9.950;2023-06-14T04:38:41;16.70;74.20
580;DHT22;276;48.392;9.950;2023-06-14T04:41:10;16.80;74.20
580;DHT22;276;48.392;9.950;2023-06-14T04:43:37;16.80;74.20
580;DHT22;276;48.392;9.950;2023-06-14T04:46:06;16.90;74.20
580;DHT22;276;48.392;9.950;2023-06-14T04:48:41;16.90;74.40
580;DHT22;276;48.392;9.950;2023-06-14T04:51:08;17.00;74.40
580;DHT22;276;48.392;9.950;2023-06-14T04:53:39;17.10;74.40
580;DHT22;276;48.392;9.950;2023-06-14T04:56:04;17.10;74.40
580;DHT22;276;48.392;9.950;2023-06-14T04:58:30;17.20;74.40
580;DHT22;276;48.392;9.950;2023-06-14T05:00:56;17.30;74.50
580;DHT22;276;48.392;9.950;2023-06-14T05:03:22;17.40;74.40
580;DHT22;276;48.392;9.950;2023-06-14T05:05:49;17.50;74.40
580;DHT22;276;48.392;9.950;2023-06-14T05:08:18;17.60;74.50
580;DHT22;276;48.392;9.950;2023-06-14T05:10:45;17.60;74.50
580;DHT22;276;48.392;9.950;2023-06-14T05:13:13;17.70;74.60
580;DHT22;276;48.392;9.950;2023-06-14T05:15:38;17.80;74.70
580;DHT22;276;48.392;9.950;2023-06-14T05:18:04;17.80;74.50
580;DHT22;276;48.392;9.950;2023-06-14T05:20:29;17.90;74.30
580;DHT22;276;48.392;9.950;2023-06-14T05:22:55;18.00;73.90
580;DHT22;276;48.392;9.950;2023-06-14T05:25:22;18.10;73.40
580;DHT22;276;48.392;9.950;2023-06-14T05:27:53;18.10;72.70
580;DHT22;276;48.392;9.950;2023-06-14T05:30:21;18.20;72.00
580;DHT22;276;48.392;9.950;2023-06-14T05:32:46;18.30;71.60
580;DHT22;276;48.392;9.950;2023-06-14T05:35:12;18.40;71.30
580;DHT22;276;48.392;9.950;2023-06-14T05:37:37;18.40;71.00
580;DHT22;276;48.392;9.950;2023-06-14T05:40:08;18.50;70.70
580;DHT22;276;48.392;9.950;2023-06-14T05:42:34;18.60;70.60
580;DHT22;276;48.392;9.950;2023-06-14T05:45:00;18.70;70.40
580;DHT22;276;48.392;9.950;2023-06-14T05:47:27;18.80;70.20
580;DHT22;276;48.392;9.950;2023-06-14T05:49:53;18.90;70.00
580;DHT22;276;48.392;9.950;2023-06-14T05:52:20;18.90;69.70
580;DHT22;276;48.392;9.950;2023-06-14T05:54:46;19.00;69.40
580;DHT22;276;48.392;9.950;2023-06-14T05:57:12;19.10;69.30
580;DHT22;276;48.392;9.950;2023-06-14T05:59:37;19.20;69.10
580;DHT22;276;48.392;9.950;2023-06-14T06:02:03;19.30;68.90
580;DHT22;276;48.392;9.950;2023-06-14T06:04:29;19.40;69.00
580;DHT22;276;48.392;9.950;2023-06-14T06:06:56;19.50;69.10
580;DHT22;276;48.392;9.950;2023-06-14T06:09:22;19.60;69.10
580;DHT22;276;48.392;9.950;2023-06-14T06:11:48;19.70;68.10
580;DHT22;276;48.392;9.950;2023-06-14T06:14:14;19.70;67.60
580;DHT22;276;48.392;9.950;2023-06-14T06:16:41;19.80;67.00
580;DHT22;276;48.392;9.950;2023-06-14T06:19:09;19.90;66.30
580;DHT22;276;48.392;9.950;2023-06-14T06:21:35;19.90;65.70
580;DHT22;276;48.392;9.950;2023-06-14T06:24:01;20.00;65.60
580;DHT22;276;48.392;9.950;2023-06-14T06:26:29;20.10;65.30
580;DHT22;276;48.392;9.950;2023-06-14T06:28:55;20.20;65.20
580;DHT22;276;48.392;9.950;2023-06-14T06:31:20;20.30;65.30
580;DHT22;276;48.392;9.950;2023-06-14T06:33:49;20.30;65.30
580;DHT22;276;48.392;9.950;2023-06-14T06:36:14;20.50;65.20
580;DHT22;276;48.392;9.950;2023-06-14T06:38:40;20.60;66.00
580;DHT22;276;48.392;9.950;2023-06-14T06:41:08;20.60;64.80
580;DHT22;276;48.392;9.950;2023-06-14T06:43:33;20.70;64.70
580;DHT22;276;48.392;9.950;2023-06-14T06:46:01;20.80;64.60
580;DHT22;276;48.392;9.950;2023-06-14T06:48:27;20.80;64.50
580;DHT22;276;48.392;9.950;2023-06-14T06:50:54;20.90;64.50
580;DHT22;276;48.392;9.950;2023-06-14T06:53:20;21.00;64.50
580;DHT22;276;48.392;9.950;2023-06-14T06:55:46;21.10;64.70
580;DHT22;276;48.392;9.950;2023-06-14T06:58:12;21.20;64.80
580;DHT22;276;48.392;9.950;2023-06-14T07:00:38;21.30;64.90
580;DHT22;276;48.392;9.950;2023-06-14T07:03:03;21.40;64.70
580;DHT22;276;48.392;9.950;2023-06-14T07:05:29;21.40;64.40
580;DHT22;276;48.392;9.950;2023-06-14T07:07:55;21.50;64.30
580;DHT22;276;48.392;9.950;2023-06-14T07:10:23;21.60;63.70
580;DHT22;276;48.392;9.950;2023-06-14T07:12:50;21.70;63.70
580;DHT22;276;48.392;9.950;2023-06-14T07:15:19;21.70;63.40
580;DHT22;276;48.392;9.950;2023-06-14T07:17:47;21.80;64.00
580;DHT22;276;48.392;9.950;2023-06-14T07:20:13;21.90;64.20
580;DHT22;276;48.392;9.950;2023-06-14T07:22:42;21.90;64.20
580;DHT22;276;48.392;9.950;2023-06-14T07:25:09;22.00;64.60
580;DHT22;276;48.392;9.950;2023-06-14T07:27:37;22.20;64.70
580;DHT22;276;48.392;9.950;2023-06-14T07:30:06;22.20;63.90
580;DHT22;276;48.392;9.950;2023-06-14T07:32:36;22.20;63.70
580;DHT22;276;48.392;9.950;2023-06-14T07:35:02;22.20;63.50
580;DHT22;276;48.392;9.950;2023-06-14T07:37:28;22.20;63.50
580;DHT22;276;48.392;9.950;2023-06-14T07:39:54;22.20;63.00
580;DHT22;276;48.392;9.950;2023-06-14T07:42:19;22.30;63.40
580;DHT22;276;48.392;9.950;2023-06-14T07:44:48;22.40;64.10
580;DHT22;276;48.392;9.950;2023-06-14T07:47:15;22.50;64.40
580;DHT22;276;48.392;9.950;2023-06-14T07:49:43;22.60;64.20
580;DHT22;276;48.392;9.950;2023-06-14T07:52:09;22.70;63.50
580;DHT22;276;48.392;9.950;2023-06-14T07:54:34;22.80;63.00
580;DHT22;276;48.392;9.950;2023-06-14T07:57:03;22.90;61.90
580;DHT22;276;48.392;9.950;2023-06-14T07:59:28;23.00;61.70
580;DHT22;276;48.392;9.950;2023-06-14T08:01:56;23.00;61.50
580;DHT22;276;48.392;9.950;2023-06-14T08:04:22;23.10;61.90
580;DHT22;276;48.392;9.950;2023-06-14T08:06:50;23.30;62.10
580;DHT22;276;48.392;9.950;2023-06-14T08:09:16;23.40;62.60
580;DHT22;276;48.392;9.950;2023-06-14T08:11:41;23.50;61.70
580;DHT22;276;48.392;9.950;2023-06-14T08:14:08;23.50;61.30
580;DHT22;276;48.392;9.950;2023-06-14T08:16:33;23.60;61.40
580;DHT22;276;48.392;9.950;2023-06-14T08:19:00;23.70;61.50
580;DHT22;276;48.392;9.950;2023-06-14T08:21:26;23.80;61.40
580;DHT22;276;48.392;9.950;2023-06-14T08:23:57;23.80;61.00
580;DHT22;276;48.392;9.950;2023-06-14T08:26:23;23.90;61.20
580;DHT22;276;48.392;9.950;2023-06-14T08:28:48;24.00;61.70
580;DHT22;276;48.392;9.950;2023-06-14T08:31:14;24.10;62.00
580;DHT22;276;48.392;9.950;2023-06-14T08:33:40;24.20;61.20
580;DHT22;276;48.392;9.950;2023-06-14T08:36:11;24.10;60.50
580;DHT22;276;48.392;9.950;2023-06-14T08:38:37;24.20;60.60
580;DHT22;276;48.392;9.950;2023-06-14T08:41:08;24.20;60.60
580;DHT22;276;48.392;9.950;2023-06-14T08:43:41;24.30;60.20
580;DHT22;276;48.392;9.950;2023-06-14T08:46:07;24.30;59.60
580;DHT22;276;48.392;9.950;2023-06-14T08:48:35;24.30;59.40
580;DHT22;276;48.392;9.950;2023-06-14T08:51:04;24.30;58.90
580;DHT22;276;48.392;9.950;2023-06-14T08:53:33;24.30;58.30
580;DHT22;276;48.392;9.950;2023-06-14T08:56:02;24.40;58.30
580;DHT22;276;48.392;9.950;2023-06-14T08:58:32;24.50;58.60
580;DHT22;276;48.392;9.950;2023-06-14T09:01:02;24.60;58.80
580;DHT22;276;48.392;9.950;2023-06-14T09:03:28;24.80;58.50
580;DHT22;276;48.392;9.950;2023-06-14T09:05:57;25.00;58.00
580;DHT22;276;48.392;9.950;2023-06-14T09:08:25;25.10;58.00
580;DHT22;276;48.392;9.950;2023-06-14T09:10:51;25.10;56.30
580;DHT22;276;48.392;9.950;2023-06-14T09:13:18;25.10;56.10
580;DHT22;276;48.392;9.950;2023-06-14T09:15:44;25.10;55.80
580;DHT22;276;48.392;9.950;2023-06-14T09:18:11;25.10;55.50
580;DHT22;276;48.392;9.950;2023-06-14T09:20:37;25.10;55.60
580;DHT22;276;48.392;9.950;2023-06-14T09:23:05;25.20;55.80
580;DHT22;276;48.392;9.950;2023-06-14T09:25:42;25.10;54.20
580;DHT22;276;48.392;9.950;2023-06-14T09:28:08;25.10;54.70
580;DHT22;276;48.392;9.950;2023-06-14T09:30:38;25.10;54.00
580;DHT22;276;48.392;9.950;2023-06-14T09:33:03;25.10;54.50
580;DHT22;276;48.392;9.950;2023-06-14T09:35:31;25.10;54.60
580;DHT22;276;48.392;9.950;2023-06-14T09:37:57;25.20;54.90
580;DHT22;276;48.392;9.950;2023-06-14T09:40:23;25.30;54.40
580;DHT22;276;48.392;9.950;2023-06-14T09:42:49;25.30;53.10
580;DHT22;276;48.392;9.950;2023-06-14T09:45:18;25.30;53.10
580;DHT22;276;48.392;9.950;2023-06-14T09:47:51;25.40;52.70
580;DHT22;276;48.392;9.950;2023-06-14T09:50:18;25.40;52.40
580;DHT22;276;48.392;9.950;2023-06-14T09:52:44;25.50;52.10
580;DHT22;276;48.392;9.950;2023-06-14T09:55:13;25.50;52.10
580;DHT22;276;48.392;9.950;2023-06-14T09:57:43;25.60;51.90
580;DHT22;276;48.392;9.950;2023-06-14T10:00:14;25.70;51.70
580;DHT22;276;48.392;9.950;2023-06-14T10:02:47;25.70;51.40
580;DHT22;276;48.392;9.950;2023-06-14T10:05:20;25.70;52.00
580;DHT22;276;48.392;9.950;2023-06-14T10:10:13;25.80;52.80
580;DHT22;276;48.392;9.950;2023-06-14T10:12:42;25.90;52.70
580;DHT22;276;48.392;9.950;2023-06-14T10:15:10;26.00;52.30
580;DHT22;276;48.392;9.950;2023-06-14T10:17:55;26.10;52.20
580;DHT22;276;48.392;9.950;2023-06-14T10:23:02;26.20;52.10
580;DHT22;276;48.392;9.950;2023-06-14T10:25:31;26.30;51.60
580;DHT22;276;48.392;9.950;2023-06-14T10:28:26;26.30;51.00
580;DHT22;276;48.392;9.950;2023-06-14T10:31:12;26.40;51.00
580;DHT22;276;48.392;9.950;2023-06-14T10:33:52;26.30;50.80
580;DHT22;276;48.392;9.950;2023-06-14T10:36:30;26.30;51.10
580;DHT22;276;48.392;9.950;2023-06-14T10:39:18;26.30;50.80
580;DHT22;276;48.392;9.950;2023-06-14T10:41:53;26.30;51.00
580;DHT22;276;48.392;9.950;2023-06-14T10:46:47;26.40;50.10
580;DHT22;276;48.392;9.950;2023-06-14T10:49:17;26.40;50.70
580;DHT22;276;48.392;9.950;2023-06-14T10:51:46;26.40;50.40
580;DHT22;276;48.392;9.950;2023-06-14T10:54:15;26.40;50.30
580;DHT22;276;48.392;9.950;2023-06-14T10:56:51;26.40;50.10
580;DHT22;276;48.392;9.950;2023-06-14T10:59:18;26.50;51.10
580;DHT22;276;48.392;9.950;2023-06-14T11:04:47;26.60;50.10
580;DHT22;276;48.392;9.950;2023-06-14T11:10:32;26.70;50.20
580;DHT22;276;48.392;9.950;2023-06-14T11:13:01;26.80;50.40
580;DHT22;276;48.392;9.950;2023-06-14T11:15:32;26.80;50.50
580;DHT22;276;48.392;9.950;2023-06-14T11:18:07;26.80;50.40
580;DHT22;276;48.392;9.950;2023-06-14T11:20:36;26.80;50.40
580;DHT22;276;48.392;9.950;2023-06-14T11:23:02;26.80;49.90
580;DHT22;276;48.392;9.950;2023-06-14T11:25:28;26.80;50.30
580;DHT22;276;48.392;9.950;2023-06-14T11:27:54;26.90;51.20
580;DHT22;276;48.392;9.950;2023-06-14T11:30:23;26.90;51.00
580;DHT22;276;48.392;9.950;2023-06-14T11:32:49;26.90;50.50
580;DHT22;276;48.392;9.950;2023-06-14T11:35:16;26.90;50.10
580;DHT22;276;48.392;9.950;2023-06-14T11:37:42;26.80;49.80
580;DHT22;276;48.392;9.950;2023-06-14T11:40:11;26.90;50.30
580;DHT22;276;48.392;9.950;2023-06-14T11:42:41;26.90;50.80
580;DHT22;276;48.392;9.950;2023-06-14T11:45:11;27.00;50.60
580;DHT22;276;48.392;9.950;2023-06-14T11:47:39;27.00;50.30
580;DHT22;276;48.392;9.950;2023-06-14T11:50:10;26.90;49.50
580;DHT22;276;48.392;9.950;2023-06-14T11:52:38;26.80;49.50
580;DHT22;276;48.392;9.950;2023-06-14T11:55:04;26.60;49.90
580;DHT22;276;48.392;9.950;2023-06-14T11:57:33;26.60;49.80
580;DHT22;276;48.392;9.950;2023-06-14T12:00:00;26.50;49.60
580;DHT22;276;48.392;9.950;2023-06-14T12:02:27;26.40;49.50
580;DHT22;276;48.392;9.950;2023-06-14T12:04:56;26.30;49.10
580;DHT22;276;48.392;9.950;2023-06-14T12:07:30;26.20;49.70
580;DHT22;276;48.392;9.950;2023-06-14T12:12:26;26.20;50.00
580;DHT22;276;48.392;9.950;2023-06-14T12:14:53;26.30;50.70
580;DHT22;276;48.392;9.950;2023-06-14T12:17:19;26.40;50.50
580;DHT22;276;48.392;9.950;2023-06-14T12:19:50;26.40;50.20
580;DHT22;276;48.392;9.950;2023-06-14T12:22:20;26.50;50.00
580;DHT22;276;48.392;9.950;2023-06-14T12:24:46;26.40;49.80
580;DHT22;276;48.392;9.950;2023-06-14T12:27:12;26.40;49.90
580;DHT22;276;48.392;9.950;2023-06-14T12:29:41;26.30;50.10
580;DHT22;276;48.392;9.950;2023-06-14T12:32:09;26.20;49.80
580;DHT22;276;48.392;9.950;2023-06-14T12:34:35;26.10;49.60
580;DHT22;276;48.392;9.950;2023-06-14T12:37:03;26.00;49.70
580;DHT22;276;48.392;9.950;2023-06-14T12:39:32;25.90;49.70
580;DHT22;276;48.392;9.950;2023-06-14T12:41:58;25.90;50.00
580;DHT22;276;48.392;9.950;2023-06-14T12:44:24;25.90;50.30
580;DHT22;276;48.392;9.950;2023-06-14T12:46:50;25.90;50.70
580;DHT22;276;48.392;9.950;2023-06-14T12:49:17;25.90;50.60
580;DHT22;276;48.392;9.950;2023-06-14T12:51:45;25.90;50.30
580;DHT22;276;48.392;9.950;2023-06-14T12:54:13;26.00;50.40
580;DHT22;276;48.392;9.950;2023-06-14T12:56:41;26.00;51.10
580;DHT22;276;48.392;9.950;2023-06-14T12:59:08;26.00;50.90
580;DHT22;276;48.392;9.950;2023-06-14T13:01:38;26.10;52.00
580;DHT22;276;48.392;9.950;2023-06-14T13:04:05;26.00;50.70
580;DHT22;276;48.392;9.950;2023-06-14T13:06:30;26.10;50.90
580;DHT22;276;48.392;9.950;2023-06-14T13:08:56;26.10;50.30
580;DHT22;276;48.392;9.950;2023-06-14T13:11:24;26.10;50.10
580;DHT22;276;48.392;9.950;2023-06-14T13:13:49;26.00;50.10
580;DHT22;276;48.392;9.950;2023-06-14T13:16:15;26.00;49.80
580;DHT22;276;48.392;9.950;2023-06-14T13:18:41;25.80;49.40
580;DHT22;276;48.392;9.950;2023-06-14T13:21:06;25.80;49.60
580;DHT22;276;48.392;9.950;2023-06-14T13:23:34;25.80;50.20
580;DHT22;276;48.392;9.950;2023-06-14T13:26:02;25.70;49.90
580;DHT22;276;48.392;9.950;2023-06-14T13:28:28;25.80;50.40
580;DHT22;276;48.392;9.950;2023-06-14T13:30:53;25.80;49.70
580;DHT22;276;48.392;9.950;2023-06-14T13:33:21;25.80;49.90
580;DHT22;276;48.392;9.950;2023-06-14T13:35:46;25.80;49.60
580;DHT22;276;48.392;9.950;2023-06-14T13:38:14;25.80;50.00
580;DHT22;276;48.392;9.950;2023-06-14T13:40:40;25.80;49.80
580;DHT22;276;48.392;9.950;2023-06-14T13:43:06;25.80;49.40
580;DHT22;276;48.392;9.950;2023-06-14T13:45:32;25.70;49.90
580;DHT22;276;48.392;9.950;2023-06-14T13:47:58;25.60;49.40
580;DHT22;276;48.392;9.950;2023-06-14T13:50:26;25.60;49.30
580;DHT22;276;48.392;9.950;2023-06-14T13:52:51;25.50;49.40
580;DHT22;276;48.392;9.950;2023-06-14T13:55:17;25.50;49.70
580;DHT22;276;48.392;9.950;2023-06-14T13:57:42;25.50;50.00
580;DHT22;276;48.392;9.950;2023-06-14T14:00:09;25.40;49.80
580;DHT22;276;48.392;9.950;2023-06-14T14:02:37;25.40;50.00
580;DHT22;276;48.392;9.950;2023-06-14T14:05:05;25.50;50.40
580;DHT22;276;48.392;9.950;2023-06-14T14:07:32;25.60;50.40
580;DHT22;276;48.392;9.950;2023-06-14T14:09:57;25.60;50.40
580;DHT22;276;48.392;9.950;2023-06-14T14:12:23;25.70;50.70
580;DHT22;276;48.392;9.950;2023-06-14T14:14:50;25.80;50.70
580;DHT22;276;48.392;9.950;2023-06-14T14:17:19;25.80;50.40
580;DHT22;276;48.392;9.950;2023-06-14T14:19:45;25.90;50.10
580;DHT22;276;48.392;9.950;2023-06-14T14:22:10;25.90;50.20
580;DHT22;276;48.392;9.950;2023-06-14T14:24:36;26.00;50.10
580;DHT22;276;48.392;9.950;2023-06-14T14:27:02;26.00;49.80
580;DHT22;276;48.392;9.950;2023-06-14T14:29:35;26.00;49.20
580;DHT22;276;48.392;9.950;2023-06-14T14:32:01;26.10;49.40
580;DHT22;276;48.392;9.950;2023-06-14T14:34:27;26.10;49.50
580;DHT22;276;48.392;9.950;2023-06-14T14:36:54;26.00;49.20
580;DHT22;276;48.392;9.950;2023-06-14T14:39:22;26.00;49.30
580;DHT22;276;48.392;9.950;2023-06-14T14:41:47;25.80;48.80
580;DHT22;276;48.392;9.950;2023-06-14T14:44:13;25.80;48.80
580;DHT22;276;48.392;9.950;2023-06-14T14:46:41;25.70;49.30
580;DHT22;276;48.392;9.950;2023-06-14T14:49:07;25.60;49.50
580;DHT22;276;48.392;9.950;2023-06-14T14:51:32;25.60;49.70
580;DHT22;276;48.392;9.950;2023-06-14T14:53:58;25.50;50.20
580;DHT22;276;48.392;9.950;2023-06-14T14:56:23;25.50;50.60
580;DHT22;276;48.392;9.950;2023-06-14T14:58:51;25.50;50.90
580;DHT22;276;48.392;9.950;2023-06-14T15:01:19;25.50;51.10
580;DHT22;276;48.392;9.950;2023-06-14T15:03:47;25.50;50.90
580;DHT22;276;48.392;9.950;2023-06-14T15:06:13;25.50;51.00
580;DHT22;276;48.392;9.950;2023-06-14T15:08:41;25.50;50.50
580;DHT22;276;48.392;9.950;2023-06-14T15:11:06;25.50;50.40
580;DHT22;276;48.392;9.950;2023-06-14T15:13:34;25.40;50.20
580;DHT22;276;48.392;9.950;2023-06-14T15:16:00;25.40;50.20
580;DHT22;276;48.392;9.950;2023-06-14T15:18:27;25.40;50.30
580;DHT22;276;48.392;9.950;2023-06-14T15:20:55;25.40;50.80
580;DHT22;276;48.392;9.950;2023-06-14T15:23:21;25.30;51.00
580;DHT22;276;48.392;9.950;2023-06-14T15:25:50;25.30;51.20
580;DHT22;276;48.392;9.950;2023-06-14T15:28:18;25.30;51.40
580;DHT22;276;48.392;9.950;2023-06-14T15:30:43;25.20;51.30
580;DHT22;276;48.392;9.950;2023-06-14T15:33:09;25.20;51.20
580;DHT22;276;48.392;9.950;2023-06-14T15:35:34;25.10;51.20
580;DHT22;276;48.392;9.950;2023-06-14T15:38:02;25.00;51.40
580;DHT22;276;48.392;9.950;2023-06-14T15:40:28;24.90;51.20
580;DHT22;276;48.392;9.950;2023-06-14T15:42:54;24.90;51.30
580;DHT22;276;48.392;9.950;2023-06-14T15:45:22;24.80;51.30
580;DHT22;276;48.392;9.950;2023-06-14T15:47:48;24.80;51.50
580;DHT22;276;48.392;9.950;2023-06-14T15:50:13;24.70;51.40
580;DHT22;276;48.392;9.950;2023-06-14T15:52:39;24.70;51.70
580;DHT22;276;48.392;9.950;2023-06-14T15:55:05;24.70;51.90
580;DHT22;276;48.392;9.950;2023-06-14T15:57:31;24.80;52.00
580;DHT22;276;48.392;9.950;2023-06-14T15:59:56;24.80;52.00
580;DHT22;276;48.392;9.950;2023-06-14T16:02:22;24.90;52.00
580;DHT22;276;48.392;9.950;2023-06-14T16:04:50;24.90;52.10
580;DHT22;276;48.392;9.950;2023-06-14T16:07:15;24.90;52.20
580;DHT22;276;48.392;9.950;2023-06-14T16:09:43;24.90;52.30
580;DHT22;276;48.392;9.950;2023-06-14T16:12:09;24.90;52.30
580;DHT22;276;48.392;9.950;2023-06-14T16:14:35;24.90;52.40
580;DHT22;276;48.392;9.950;2023-06-14T16:17:00;24.90;52.90
580;DHT22;276;48.392;9.950;2023-06-14T16:19:31;24.90;52.30
580;DHT22;276;48.392;9.950;2023-06-14T16:21:59;24.90;52.40
580;DHT22;276;48.392;9.950;2023-06-14T16:24:27;24.90;52.30
580;DHT22;276;48.392;9.950;2023-06-14T16:26:55;24.90;52.10
580;DHT22;276;48.392;9.950;2023-06-14T16:29:23;24.90;52.10
580;DHT22;276;48.392;9.950;2023-06-14T16:31:48;24.90;52.40
580;DHT22;276;48.392;9.950;2023-06-14T16:34:16;24.90;52.60
580;DHT22;276;48.392;9.950;2023-06-14T16:36:45;24.90;52.90
580;DHT22;276;48.392;9.950;2023-06-14T16:39:10;24.90;52.70
580;DHT22;276;48.392;9.950;2023-06-14T16:41:37;24.90;52.70
580;DHT22;276;48.392;9.950;2023-06-14T16:44:05;24.90;52.80
580;DHT22;276;48.392;9.950;2023-06-14T16:46:32;24.90;53.40
580;DHT22;276;48.392;9.950;2023-06-14T16:49:01;24.80;52.60
580;DHT22;276;48.392;9.950;2023-06-14T16:51:27;24.80;52.30
580;DHT22;276;48.392;9.950;2023-06-14T16:53:53;24.80;52.00
580;DHT22;276;48.392;9.950;2023-06-14T16:56:23;24.80;52.00